Time;durP1;ratioP1;P1;durP2;ratioP2;P2;SDS_P1;SDS_P2;PMS_P1;PMS_P2;Temp;Humidity;BMP_temperature;BMP_pressure;BME280_temperature;BME280_humidity;BME280_pressure;Samples;Min_cycle;Max_cycle;Signal;HPM_P1;HPM_P2
2023/02/28 05:01:16;;;;;;;0.80;0.80;;;-1.60;99.90;;;;;;5596431;23;20323;-71
2023/02/28 05:03:43;;;;;;;0.75;0.75;;;-1.60;99.90;;;;;;4921088;29;20207;-68
2023/02/28 05:06:11;;;;;;;1.58;1.58;;;-1.60;99.90;;;;;;4932492;29;20218;-68
2023/02/28 05:08:37;;;;;;;1.30;1.30;;;-1.60;99.90;;;;;;4927359;28;20222;-68
2023/02/28 05:11:06;;;;;;;0.60;0.60;;;-1.60;99.90;;;;;;4928094;28;20237;-68
2023/02/28 05:13:34;;;;;;;1.08;0.90;;;-1.70;99.90;;;;;;4925350;29;20220;-69
2023/02/28 05:16:01;;;;;;;4.88;2.30;;;-1.70;99.90;;;;;;4930587;29;20213;-73
2023/02/28 05:18:29;;;;;;;4.80;1.38;;;-1.70;99.90;;;;;;4930061;29;20209;-67
2023/02/28 05:20:56;;;;;;;5.25;3.10;;;-1.70;99.90;;;;;;4929918;29;20246;-67
2023/02/28 05:23:24;;;;;;;0.70;0.70;;;-1.70;99.90;;;;;;4930023;29;20210;-67
2023/02/28 05:25:51;;;;;;;1.67;0.57;;;-1.70;99.90;;;;;;4930581;29;20205;-69
2023/02/28 05:28:19;;;;;;;0.95;0.95;;;-1.70;99.90;;;;;;4930407;29;20214;-67
2023/02/28 05:30:46;;;;;;;1.00;1.00;;;-1.80;99.90;;;;;;4924070;29;20294;-68
2023/02/28 05:33:13;;;;;;;5.18;3.08;;;-1.80;99.90;;;;;;4930475;29;20671;-68
2023/02/28 05:35:42;;;;;;;2.25;2.17;;;-1.80;99.90;;;;;;4929617;29;20210;-68
2023/02/28 05:38:09;;;;;;;1.38;1.30;;;-1.80;99.90;;;;;;4922578;29;20234;-66
2023/02/28 05:40:36;;;;;;;1.00;1.00;;;-1.80;99.90;;;;;;4921515;29;20233;-67
2023/02/28 05:43:03;;;;;;;1.60;1.60;;;-1.80;99.90;;;;;;4932642;29;20214;-67
2023/02/28 05:45:29;;;;;;;0.57;0.57;;;-1.80;99.90;;;;;;4932388;29;20214;-67
2023/02/28 05:47:57;;;;;;;1.00;1.00;;;-1.80;99.90;;;;;;4932937;29;20206;-66
2023/02/28 05:50:23;;;;;;;1.10;0.40;;;-1.80;99.90;;;;;;4935360;29;20236;-66
2023/02/28 05:52:53;;;;;;;1.30;1.30;;;-1.80;99.90;;;;;;4931697;29;20225;-66
2023/02/28 05:55:20;;;;;;;1.20;1.20;;;-1.80;99.90;;;;;;4931418;29;20201;-66
2023/02/28 05:57:46;;;;;;;0.68;0.68;;;-1.80;99.90;;;;;;4932224;29;20221;-66
2023/02/28 06:00:15;;;;;;;2.05;1.95;;;-1.80;99.90;;;;;;4934809;29;20220;-67
2023/02/28 06:06:04;;;;;;;1.27;1.23;;;-1.80;99.90;;;;;;4933723;29;20650;-69
2023/02/28 06:08:32;;;;;;;2.70;1.73;;;-1.80;99.90;;;;;;4932785;29;20216;-67
2023/02/28 06:11:03;;;;;;;0.95;0.95;;;-1.80;99.90;;;;;;4931607;29;20245;-67
2023/02/28 06:13:30;;;;;;;0.85;0.85;;;-1.90;99.90;;;;;;4925940;29;20209;-66
2023/02/28 06:15:56;;;;;;;3.40;2.05;;;-1.80;99.90;;;;;;4933449;29;20213;-67
2023/02/28 06:18:23;;;;;;;2.50;2.30;;;-1.80;99.90;;;;;;4932939;29;20309;-68
2023/02/28 06:20:54;;;;;;;2.15;2.05;;;-1.90;99.90;;;;;;4928469;29;20237;-67
2023/02/28 06:23:21;;;;;;;2.97;2.92;;;-1.80;99.90;;;;;;4933746;29;20206;-67
2023/02/28 06:25:49;;;;;;;0.40;0.40;;;-1.90;99.90;;;;;;4931913;29;20329;-67
2023/02/28 06:28:17;;;;;;;4.03;2.90;;;-1.80;99.90;;;;;;4927161;29;20257;-67
2023/02/28 06:30:43;;;;;;;1.45;1.40;;;-1.80;99.90;;;;;;4927598;29;20237;-67
2023/02/28 06:33:10;;;;;;;2.03;2.03;;;-1.80;99.90;;;;;;4921126;29;20213;-65
2023/02/28 06:35:38;;;;;;;1.40;1.40;;;-1.80;99.90;;;;;;4932583;29;20206;-65
2023/02/28 06:38:04;;;;;;;2.35;2.25;;;-1.80;99.90;;;;;;4932511;29;20518;-66
2023/02/28 06:40:33;;;;;;;6.22;2.78;;;-1.80;99.90;;;;;;4928094;29;20529;-67
2023/02/28 06:43:01;;;;;;;7.38;1.85;;;-1.80;99.90;;;;;;4929271;29;20202;-66
2023/02/28 06:45:28;;;;;;;0.73;0.73;;;-1.80;99.90;;;;;;4925999;29;20217;-66
2023/02/28 06:47:55;;;;;;;1.17;1.17;;;-1.70;99.90;;;;;;4927066;29;20221;-66
2023/02/28 06:50:21;;;;;;;1.73;1.73;;;-1.70;99.90;;;;;;4933971;29;20225;-66
2023/02/28 06:52:53;;;;;;;2.55;2.35;;;-1.70;99.90;;;;;;4931952;29;20221;-66
2023/02/28 06:55:20;;;;;;;2.85;2.75;;;-1.60;99.90;;;;;;4926593;29;20217;-66
2023/02/28 06:57:46;;;;;;;4.05;3.63;;;-1.60;99.90;;;;;;4931915;29;20292;-67
2023/02/28 07:00:16;;;;;;;2.20;2.10;;;-1.60;99.90;;;;;;4931005;29;20202;-66
2023/02/28 07:02:43;;;;;;;4.32;2.35;;;-1.50;99.90;;;;;;4929861;29;20205;-67
2023/02/28 07:05:09;;;;;;;1.80;1.70;;;-1.50;99.90;;;;;;4924105;29;20686;-67
2023/02/28 07:07:38;;;;;;;0.40;0.40;;;-1.50;99.90;;;;;;4927663;29;20206;-67
2023/02/28 07:10:05;;;;;;;1.00;1.00;;;-1.40;99.90;;;;;;4933746;29;20241;-67
2023/02/28 07:12:32;;;;;;;5.72;3.03;;;-1.40;99.90;;;;;;4931708;29;20245;-67
2023/02/28 07:14:59;;;;;;;5.53;3.75;;;-1.30;99.90;;;;;;4931141;29;20201;-68
2023/02/28 07:17:27;;;;;;;0.50;0.50;;;-1.30;99.90;;;;;;4933740;29;20667;-68
2023/02/28 07:19:54;;;;;;;3.92;2.40;;;-1.20;99.90;;;;;;4932167;29;20213;-68
2023/02/28 07:22:20;;;;;;;1.52;1.52;;;-1.00;99.90;;;;;;4932560;29;20229;-68
2023/02/28 07:24:47;;;;;;;2.30;1.63;;;-1.00;99.90;;;;;;4925777;29;20301;-68
2023/02/28 07:27:25;;;;;;;2.35;2.25;;;-1.00;99.90;;;;;;4929785;29;20313;-69
2023/02/28 07:29:52;;;;;;;1.30;1.20;;;-0.90;99.90;;;;;;4929758;29;20244;-68
2023/02/28 07:32:19;;;;;;;3.25;3.05;;;-0.80;99.90;;;;;;4931370;29;20237;-69
2023/02/28 07:34:48;;;;;;;2.25;2.15;;;-0.70;99.90;;;;;;4932645;29;20594;-68
2023/02/28 07:37:15;;;;;;;2.05;1.98;;;-0.70;99.90;;;;;;4930838;29;20217;-68
2023/02/28 07:39:43;;;;;;;1.10;1.10;;;-0.60;99.90;;;;;;4928183;29;20337;-69
2023/02/28 07:42:11;;;;;;;1.80;1.80;;;-0.60;99.90;;;;;;4928414;29;20636;-68
2023/02/28 07:44:40;;;;;;;2.30;2.13;;;-0.50;99.90;;;;;;4927151;29;20312;-69
2023/02/28 07:47:07;;;;;;;2.55;1.02;;;-0.50;99.90;;;;;;4920886;29;20555;-66
2023/02/28 07:49:35;;;;;;;2.13;2.13;;;-0.40;99.90;;;;;;4920443;29;20729;-66
2023/02/28 07:52:03;;;;;;;2.95;2.83;;;-0.40;99.90;;;;;;4924684;29;20241;-66
2023/02/28 07:54:30;;;;;;;2.90;2.80;;;-0.30;99.90;;;;;;4932826;29;20237;-69
2023/02/28 07:56:57;;;;;;;1.45;1.45;;;-0.30;99.90;;;;;;4926860;29;20201;-67
2023/02/28 07:59:24;;;;;;;5.70;3.08;;;-0.20;99.90;;;;;;4922311;29;20210;-68
2023/02/28 08:01:51;;;;;;;1.30;1.15;;;-0.20;99.90;;;;;;4927736;29;20241;-66
2023/02/28 08:04:18;;;;;;;1.40;1.40;;;-0.10;99.90;;;;;;4933316;29;20198;-67
2023/02/28 08:06:44;;;;;;;0.65;0.65;;;0.00;99.90;;;;;;4930151;29;20234;-69
2023/02/28 08:09:12;;;;;;;1.40;1.30;;;0.00;99.90;;;;;;4923762;29;20221;-67
2023/02/28 08:11:39;;;;;;;5.60;1.55;;;0.10;99.90;;;;;;4925303;29;20246;-68
2023/02/28 08:14:06;;;;;;;0.82;0.82;;;0.20;99.90;;;;;;4929852;29;20205;-70
2023/02/28 08:16:33;;;;;;;1.02;1.00;;;0.20;99.90;;;;;;4927727;29;20214;-68
2023/02/28 08:18:59;;;;;;;2.45;2.45;;;0.30;99.90;;;;;;4923417;29;20213;-68
2023/02/28 08:21:26;;;;;;;1.77;1.75;;;0.30;99.90;;;;;;4930629;29;20261;-68
2023/02/28 08:23:53;;;;;;;1.10;1.10;;;0.40;99.90;;;;;;4933070;29;20217;-67
2023/02/28 08:26:21;;;;;;;1.77;1.67;;;0.50;99.90;;;;;;4927313;29;20210;-69
2023/02/28 08:28:48;;;;;;;2.83;1.92;;;0.60;99.90;;;;;;4932559;29;20235;-67
2023/02/28 08:31:16;;;;;;;0.68;0.68;;;0.60;99.90;;;;;;4928621;29;20242;-69
2023/02/28 08:33:44;;;;;;;1.45;1.45;;;0.70;99.90;;;;;;4932293;29;20222;-68
2023/02/28 08:36:11;;;;;;;1.27;1.27;;;0.70;99.90;;;;;;4922901;29;20305;-68
2023/02/28 08:38:39;;;;;;;1.73;1.67;;;0.80;99.90;;;;;;4923327;29;20210;-67
2023/02/28 08:41:08;;;;;;;1.52;1.42;;;0.90;99.90;;;;;;4931313;29;20270;-67
2023/02/28 08:43:36;;;;;;;1.27;1.27;;;1.00;99.90;;;;;;4931874;29;20214;-70
2023/02/28 08:46:04;;;;;;;0.75;0.75;;;1.10;99.90;;;;;;4931175;29;20216;-69
2023/02/28 08:48:32;;;;;;;0.90;0.85;;;1.20;99.90;;;;;;4931166;29;20210;-69
2023/02/28 08:51:00;;;;;;;3.92;2.55;;;1.30;99.90;;;;;;4932125;29;20233;-68
2023/02/28 08:53:27;;;;;;;1.30;1.30;;;1.30;99.90;;;;;;4929126;29;20221;-69
2023/02/28 08:55:59;;;;;;;1.35;1.35;;;1.40;99.90;;;;;;4925121;29;20217;-68
2023/02/28 08:58:26;;;;;;;3.83;3.53;;;1.50;99.90;;;;;;4932434;29;20210;-69
2023/02/28 09:00:55;;;;;;;0.43;0.43;;;1.60;99.90;;;;;;4927775;29;20238;-69
2023/02/28 09:03:22;;;;;;;1.55;1.08;;;1.70;99.90;;;;;;4924629;29;20206;-69
2023/02/28 09:06:00;;;;;;;3.75;3.45;;;1.70;99.90;;;;;;4931244;29;20210;-67
2023/02/28 09:08:28;;;;;;;4.20;0.82;;;1.90;99.90;;;;;;4927354;29;20216;-68
2023/02/28 09:10:57;;;;;;;1.40;1.40;;;1.90;99.90;;;;;;4925554;29;20257;-68
2023/02/28 09:13:24;;;;;;;2.50;2.30;;;2.00;99.90;;;;;;4925244;29;20262;-67
2023/02/28 09:15:51;;;;;;;2.88;1.45;;;2.10;99.90;;;;;;4928567;29;20554;-68
2023/02/28 09:18:20;;;;;;;1.40;0.95;;;2.30;99.90;;;;;;4935355;29;20206;-68
2023/02/28 09:20:47;;;;;;;2.83;1.08;;;2.30;99.90;;;;;;4932188;29;20241;-69
2023/02/28 09:23:14;;;;;;;2.57;2.37;;;2.40;99.90;;;;;;4935401;29;20834;-70
2023/02/28 09:25:47;;;;;;;0.82;0.82;;;2.50;99.90;;;;;;4927631;29;20836;-68
2023/02/28 09:28:15;;;;;;;1.52;1.52;;;2.60;99.90;;;;;;4928947;29;20218;-68
2023/02/28 09:30:42;;;;;;;4.20;2.47;;;2.70;99.90;;;;;;4936756;29;20246;-68
2023/02/28 09:33:09;;;;;;;1.67;1.58;;;2.80;99.90;;;;;;4936230;29;20329;-67
2023/02/28 09:35:37;;;;;;;4.75;2.25;;;2.90;99.90;;;;;;4936336;29;20209;-67
2023/02/28 09:38:04;;;;;;;3.55;2.33;;;3.00;99.90;;;;;;4935438;29;20297;-68
2023/02/28 09:40:32;;;;;;;1.25;1.25;;;3.10;99.90;;;;;;4928980;29;20198;-67
2023/02/28 09:43:01;;;;;;;1.63;1.60;;;3.20;99.90;;;;;;4916627;29;20226;-68
2023/02/28 09:45:32;;;;;;;1.42;1.42;;;3.30;99.90;;;;;;4917231;29;20211;-67
2023/02/28 09:48:04;;;;;;;1.38;1.00;;;3.40;99.90;;;;;;4918182;29;20217;-68
2023/02/28 09:50:35;;;;;;;2.25;2.15;;;3.40;99.90;;;;;;4928727;29;20533;-68
2023/02/28 09:53:11;;;;;;;1.52;1.52;;;3.50;99.90;;;;;;4917356;29;20225;-67
2023/02/28 09:55:41;;;;;;;1.50;1.50;;;3.60;99.90;;;;;;4921910;29;20689;-66
2023/02/28 09:58:21;;;;;;;0.80;0.73;;;3.70;99.90;;;;;;4916843;29;20210;-66
2023/02/28 10:00:55;;;;;;;1.08;1.08;;;3.80;99.90;;;;;;4923133;29;20253;-65
2023/02/28 10:03:32;;;;;;;0.60;0.60;;;3.90;99.90;;;;;;4929732;29;20202;-66
2023/02/28 10:06:04;;;;;;;0.57;0.57;;;3.90;99.90;;;;;;4916885;29;20216;-66
2023/02/28 10:08:41;;;;;;;0.38;0.38;;;4.00;99.90;;;;;;4916793;29;20210;-65
2023/02/28 10:11:11;;;;;;;0.20;0.20;;;4.20;99.90;;;;;;4925391;29;20237;-65
2023/02/28 10:13:49;;;;;;;0.50;0.50;;;4.00;99.90;;;;;;4927043;29;20557;-67
2023/02/28 10:16:20;;;;;;;0.30;0.30;;;4.10;99.90;;;;;;4929502;29;20626;-66
2023/02/28 10:18:51;;;;;;;0.32;0.32;;;4.10;99.90;;;;;;4917985;29;20213;-69
2023/02/28 10:21:24;;;;;;;0.80;0.80;;;4.30;99.90;;;;;;4933127;29;20225;-66
2023/02/28 10:23:57;;;;;;;1.23;1.20;;;4.30;99.90;;;;;;4927711;29;20203;-66
2023/02/28 10:26:29;;;;;;;0.40;0.40;;;4.40;99.90;;;;;;4934912;29;20210;-67
2023/02/28 10:28:56;;;;;;;5.70;0.75;;;4.50;99.90;;;;;;4924884;29;20211;-67
2023/02/28 10:31:23;;;;;;;0.20;0.20;;;4.70;99.90;;;;;;4915838;29;20245;-67
2023/02/28 10:33:50;;;;;;;0.10;0.10;;;4.60;99.90;;;;;;4919124;29;20217;-67
2023/02/28 10:36:19;;;;;;;0.75;0.75;;;4.60;99.90;;;;;;4929695;29;20218;-68
2023/02/28 10:38:47;;;;;;;2.13;0.90;;;4.60;99.90;;;;;;4916471;29;20218;-67
2023/02/28 10:41:17;;;;;;;1.70;1.70;;;4.70;99.90;;;;;;4916032;29;20231;-67
2023/02/28 10:43:45;;;;;;;0.90;0.82;;;4.70;99.90;;;;;;4916476;29;20824;-67
2023/02/28 10:46:25;;;;;;;0.35;0.35;;;4.80;99.90;;;;;;4916152;29;20218;-68
2023/02/28 10:49:02;;;;;;;1.48;1.48;;;4.90;99.90;;;;;;4923243;29;20261;-66
2023/02/28 10:51:36;;;;;;;0.20;0.20;;;5.00;99.90;;;;;;4927567;29;20236;-67
2023/02/28 10:54:04;;;;;;;0.63;0.40;;;5.10;99.90;;;;;;4915988;29;20217;-67
2023/02/28 10:56:33;;;;;;;1.27;1.27;;;5.30;99.90;;;;;;4915409;29;20214;-67
2023/02/28 10:59:02;;;;;;;1.02;1.02;;;5.20;99.90;;;;;;4916140;29;20214;-68
2023/02/28 11:01:37;;;;;;;0.73;0.60;;;;;;;;;;4915671;29;20238;-67
2023/02/28 11:04:04;;;;;;;1.30;0.88;;;5.30;99.90;;;;;;4924488;29;20584;-66
2023/02/28 11:06:33;;;;;;;1.73;1.63;;;5.30;99.90;;;;;;4931102;29;20551;-67
2023/02/28 11:09:01;;;;;;;0.52;0.52;;;5.30;99.90;;;;;;4934976;29;20209;-67
2023/02/28 11:11:41;;;;;;;0.52;0.52;;;5.40;99.90;;;;;;4934014;29;20237;-67
2023/02/28 11:14:20;;;;;;;2.58;2.58;;;5.30;99.90;;;;;;4934195;29;20671;-68
2023/02/28 11:16:47;;;;;;;0.98;0.88;;;5.30;99.90;;;;;;4933015;29;20317;-68
2023/02/28 11:19:20;;;;;;;0.85;0.85;;;5.30;99.90;;;;;;4925559;29;20214;-68
2023/02/28 11:21:54;;;;;;;0.68;0.68;;;5.20;99.90;;;;;;4916900;29;20226;-68
2023/02/28 11:24:25;;;;;;;0.80;0.80;;;5.30;99.90;;;;;;4916115;29;20233;-68
2023/02/28 11:26:54;;;;;;;0.85;0.47;;;5.30;99.90;;;;;;4915403;29;20203;-68
2023/02/28 11:29:23;;;;;;;0.82;0.60;;;5.50;99.90;;;;;;4915907;29;20214;-68
2023/02/28 11:32:16;;;;;;;0.65;0.60;;;5.50;99.90;;;;;;4917671;29;20233;-69
2023/02/28 11:34:43;;;;;;;0.20;0.20;;;5.60;99.90;;;;;;4926425;29;20598;-68
2023/02/28 11:37:16;;;;;;;0.63;0.55;;;5.60;99.90;;;;;;4934082;29;20217;-69
2023/02/28 11:39:43;;;;;;;0.17;0.17;;;5.70;99.90;;;;;;4934785;29;20565;-68
2023/02/28 11:42:31;;;;;;;0.40;0.40;;;5.70;99.90;;;;;;4933944;29;20241;-68
2023/02/28 11:45:12;;;;;;;1.00;1.00;;;5.80;99.90;;;;;;4933123;29;20218;-69
2023/02/28 11:47:45;;;;;;;0.40;0.40;;;5.80;99.90;;;;;;4932592;29;20209;-69
2023/02/28 11:50:40;;;;;;;0.10;0.10;;;5.80;99.90;;;;;;4933157;29;20216;-68
2023/02/28 11:53:17;;;;;;;0.20;0.20;;;5.80;99.90;;;;;;4915227;29;20214;-68
2023/02/28 11:55:50;;;;;;;0.80;0.80;;;5.90;99.90;;;;;;4920866;29;20671;-69
2023/02/28 11:58:31;;;;;;;0.20;0.20;;;6.00;99.90;;;;;;4933380;29;20205;-67
2023/02/28 12:01:22;;;;;;;0.38;0.38;;;6.00;99.90;;;;;;4932295;29;20229;-68
2023/02/28 12:04:05;;;;;;;5.28;0.95;;;6.00;99.90;;;;;;4923558;29;20215;-68
2023/02/28 12:06:37;;;;;;;0.10;0.10;;;6.10;99.90;;;;;;4929768;29;20214;-68
2023/02/28 12:09:14;;;;;;;0.82;0.82;;;6.10;99.90;;;;;;4914863;29;20278;-68
2023/02/28 12:11:52;;;;;;;0.45;0.45;;;6.00;99.90;;;;;;4914138;29;20234;-68
2023/02/28 12:14:32;;;;;;;0.20;0.20;;;6.00;99.90;;;;;;4914333;29;20249;-68
2023/02/28 12:17:12;;;;;;;1.85;0.75;;;6.10;99.90;;;;;;4921074;29;20228;-68
2023/02/28 12:19:49;;;;;;;0.30;0.30;;;6.10;99.90;;;;;;4932706;29;20241;-69
2023/02/28 12:22:30;;;;;;;0.30;0.30;;;6.10;99.90;;;;;;4927671;29;20555;-69
2023/02/28 12:25:40;;;;;;;1.70;0.65;;;6.20;99.90;;;;;;4914095;29;20221;-68
2023/02/28 12:28:10;;;;;;;0.63;0.63;;;6.20;99.90;;;;;;4904541;29;20222;-69
2023/02/28 12:30:52;;;;;;;0.45;0.45;;;6.20;99.90;;;;;;4913996;29;20321;-68
2023/02/28 12:33:22;;;;;;;0.30;0.30;;;6.20;99.90;;;;;;4914353;29;20207;-68
2023/02/28 12:35:55;;;;;;;0.40;0.40;;;6.20;99.90;;;;;;4914328;29;20683;-68
2023/02/28 12:38:26;;;;;;;0.30;0.30;;;6.20;99.90;;;;;;4934588;29;20210;-69
2023/02/28 12:40:59;;;;;;;1.50;0.45;;;6.10;99.90;;;;;;4916796;29;20230;-67
2023/02/28 12:43:32;;;;;;;0.63;0.63;;;6.10;99.90;;;;;;4917780;29;20211;-68
2023/02/28 12:46:07;;;;;;;1.95;1.95;;;6.20;99.90;;;;;;4920295;29;20206;-68
2023/02/28 12:48:41;;;;;;;1.27;1.27;;;6.20;99.90;;;;;;4917461;29;20225;-68
2023/02/28 12:51:08;;;;;;;0.65;0.65;;;6.30;99.90;;;;;;4919370;29;20238;-68
2023/02/28 12:53:47;;;;;;;0.60;0.60;;;6.30;99.90;;;;;;4926795;29;20208;-69
2023/02/28 12:56:20;;;;;;;0.25;0.25;;;6.20;99.90;;;;;;4937307;29;20213;-68
2023/02/28 12:58:51;;;;;;;2.58;0.85;;;6.30;99.90;;;;;;4936523;29;20213;-68
2023/02/28 13:01:43;;;;;;;0.43;0.43;;;6.30;99.90;;;;;;4918293;29;20820;-69
2023/02/28 13:04:39;;;;;;;0.90;0.40;;;6.20;99.90;;;;;;4921737;29;20199;-68
2023/02/28 13:07:19;;;;;;;1.10;1.00;;;6.20;99.90;;;;;;4918895;29;20237;-68
2023/02/28 13:09:53;;;;;;;0.85;0.85;;;6.30;99.90;;;;;;4927337;29;20220;-68
2023/02/28 13:12:22;;;;;;;1.88;0.90;;;6.20;99.90;;;;;;4930379;29;20236;-68
2023/02/28 13:14:50;;;;;;;0.68;0.45;;;6.20;99.90;;;;;;4917898;29;20210;-67
2023/02/28 13:17:22;;;;;;;4.40;0.60;;;6.20;99.90;;;;;;4922620;29;20588;-67
2023/02/28 13:19:59;;;;;;;5.28;1.10;;;6.30;99.90;;;;;;4935548;29;20210;-69
2023/02/28 13:22:40;;;;;;;0.50;0.50;;;6.30;99.90;;;;;;4930151;29;20223;-69
2023/02/28 13:25:51;;;;;;;1.90;1.80;;;6.30;99.90;;;;;;4917470;29;20236;-68
2023/02/28 13:29:06;;;;;;;0.50;0.50;;;6.40;99.90;;;;;;4915130;29;20238;-68
2023/02/28 13:31:34;;;;;;;0.40;0.40;;;6.50;99.90;;;;;;4916890;29;20246;-68
2023/02/28 13:34:17;;;;;;;0.85;0.85;;;6.50;99.90;;;;;;4917355;29;20210;-69
2023/02/28 13:36:44;;;;;;;1.00;0.40;;;6.50;99.90;;;;;;4917174;29;20226;-69
2023/02/28 13:39:48;;;;;;;2.95;1.40;;;6.60;99.90;;;;;;4931922;29;20622;-68
2023/02/28 13:42:34;;;;;;;0.52;0.52;;;6.60;99.90;;;;;;4904534;29;20739;-68
2023/02/28 13:45:26;;;;;;;0.65;0.65;;;6.60;99.90;;;;;;4917496;29;20297;-69
2023/02/28 13:47:56;;;;;;;0.40;0.40;;;6.50;99.90;;;;;;4916639;29;20214;-68
2023/02/28 13:50:34;;;;;;;2.80;0.88;;;6.50;99.90;;;;;;4917207;29;20590;-69
2023/02/28 13:53:40;;;;;;;0.40;0.40;;;6.50;99.90;;;;;;4931725;29;20218;-68
2023/02/28 13:56:20;;;;;;;1.00;0.80;;;6.60;99.90;;;;;;4908491;29;20210;-68
2023/02/28 13:58:54;;;;;;;0.63;0.63;;;6.60;99.90;;;;;;4917013;29;20218;-69
2023/02/28 14:01:42;;;;;;;0.47;0.47;;;6.60;99.90;;;;;;4915786;29;20238;-69
2023/02/28 14:04:38;;;;;;;0.50;0.50;;;6.60;99.90;;;;;;4916933;29;20258;-68
2023/02/28 14:07:08;;;;;;;0.63;0.63;;;6.60;99.90;;;;;;4917611;29;20302;-69
2023/02/28 14:09:38;;;;;;;0.47;0.47;;;6.50;99.90;;;;;;4929888;29;20213;-66
2023/02/28 14:12:42;;;;;;;0.43;0.43;;;6.50;99.90;;;;;;4928256;29;20225;-67
2023/02/28 14:15:40;;;;;;;2.70;0.88;;;6.50;99.90;;;;;;4935733;29;20684;-67
2023/02/28 14:18:18;;;;;;;0.52;0.52;;;6.60;99.90;;;;;;4935862;29;20277;-67
2023/02/28 14:20:47;;;;;;;0.55;0.55;;;6.60;99.90;;;;;;4935807;29;20599;-67
2023/02/28 14:23:25;;;;;;;1.02;1.02;;;6.60;99.90;;;;;;4935571;29;20524;-67
2023/02/28 14:26:02;;;;;;;0.50;0.50;;;6.60;99.90;;;;;;4933835;29;20585;-67
2023/02/28 14:28:44;;;;;;;3.65;1.55;;;6.60;99.90;;;;;;4927886;29;20212;-67
2023/02/28 14:31:15;;;;;;;3.42;0.73;;;6.60;99.90;;;;;;4935240;29;20238;-67
2023/02/28 14:33:58;;;;;;;0.40;0.40;;;6.50;99.90;;;;;;4934589;29;20206;-67
2023/02/28 14:36:28;;;;;;;0.93;0.60;;;6.50;99.90;;;;;;4936944;29;20202;-67
2023/02/28 14:39:00;;;;;;;0.80;0.80;;;6.50;99.90;;;;;;4936014;29;20213;-67
2023/02/28 14:41:35;;;;;;;0.20;0.20;;;6.50;99.90;;;;;;4937209;29;20221;-67
2023/02/28 14:44:03;;;;;;;0.30;0.30;;;6.50;99.90;;;;;;4931641;29;20205;-67
2023/02/28 14:46:36;;;;;;;4.78;0.60;;;6.50;99.90;;;;;;4935235;29;20198;-68
2023/02/28 14:49:05;;;;;;;0.45;0.45;;;6.50;99.90;;;;;;4917609;29;20210;-68
2023/02/28 14:51:32;;;;;;;0.30;0.30;;;6.50;99.90;;;;;;4917643;29;20227;-68
2023/02/28 14:54:03;;;;;;;0.50;0.50;;;6.40;99.90;;;;;;4919314;29;20246;-68
2023/02/28 14:56:35;;;;;;;0.40;0.40;;;6.50;99.90;;;;;;4916637;29;20249;-68
2023/02/28 14:59:02;;;;;;;0.55;0.30;;;6.50;99.90;;;;;;4931220;29;20216;-68
2023/02/28 15:01:28;;;;;;;0.82;0.68;;;6.50;99.90;;;;;;4937979;29;20245;-68
2023/02/28 15:04:03;;;;;;;0.52;0.52;;;6.40;99.90;;;;;;4937144;29;20316;-68
2023/02/28 15:06:31;;;;;;;0.20;0.20;;;6.50;99.90;;;;;;4937948;29;20218;-68
2023/02/28 15:09:16;;;;;;;0.65;0.65;;;6.40;99.90;;;;;;4938341;29;20214;-68
2023/02/28 15:11:47;;;;;;;0.20;0.20;;;6.40;99.90;;;;;;4941342;29;20237;-68
2023/02/28 15:14:20;;;;;;;0.17;0.17;;;6.40;99.90;;;;;;4938376;29;20214;-68
2023/02/28 15:16:51;;;;;;;0.75;0.75;;;6.40;99.90;;;;;;4941911;29;20217;-67
2023/02/28 15:19:22;;;;;;;2.47;1.85;;;6.30;99.90;;;;;;4950978;29;20209;-67
2023/02/28 15:21:52;;;;;;;0.70;0.70;;;6.30;99.90;;;;;;4949285;29;20621;-67
2023/02/28 15:24:26;;;;;;;4.10;1.27;;;6.30;99.90;;;;;;4950363;29;20210;-68
2023/02/28 15:26:57;;;;;;;0.57;0.57;;;6.30;99.90;;;;;;4949004;29;20214;-68
2023/02/28 15:29:26;;;;;;;1.00;1.00;;;6.30;99.90;;;;;;4944746;29;20238;-68
2023/02/28 15:32:00;;;;;;;1.48;1.10;;;6.30;99.90;;;;;;4934177;29;20260;-67
2023/02/28 15:34:34;;;;;;;2.70;1.70;;;6.30;99.90;;;;;;4935066;29;20205;-68
2023/02/28 15:37:01;;;;;;;0.60;0.60;;;6.20;99.90;;;;;;4915955;29;20211;-68
2023/02/28 15:39:29;;;;;;;1.50;0.68;;;6.30;99.90;;;;;;4916025;29;20285;-68
2023/02/28 15:42:11;;;;;;;0.30;0.30;;;6.20;99.90;;;;;;4915593;29;20230;-67
2023/02/28 15:44:38;;;;;;;0.73;0.65;;;6.10;99.90;;;;;;4918656;29;20228;-68
2023/02/28 15:47:08;;;;;;;0.73;0.73;;;6.10;99.90;;;;;;4914936;29;20225;-67
2023/02/28 15:49:40;;;;;;;0.20;0.20;;;6.10;99.90;;;;;;4925079;29;20624;-68
2023/02/28 15:52:14;;;;;;;0.35;0.35;;;6.00;99.90;;;;;;4929118;29;20671;-68
2023/02/28 15:54:44;;;;;;;0.20;0.20;;;6.00;99.90;;;;;;4934186;29;20214;-68
2023/02/28 15:57:16;;;;;;;1.60;0.30;;;5.90;99.90;;;;;;4933911;29;20221;-68
2023/02/28 15:59:51;;;;;;;1.20;1.10;;;5.80;99.90;;;;;;4934498;29;20321;-68
2023/02/28 16:02:20;;;;;;;0.75;0.75;;;5.80;99.90;;;;;;4933297;29;20241;-68
2023/02/28 16:05:27;;;;;;;0.65;0.43;;;5.80;99.90;;;;;;4932110;29;20205;-67
2023/02/28 16:07:55;;;;;;;0.30;0.30;;;5.70;99.90;;;;;;4919373;29;20210;-68
2023/02/28 16:10:25;;;;;;;0.85;0.55;;;5.60;99.90;;;;;;4930997;29;20206;-68
2023/02/28 16:12:54;;;;;;;1.30;0.50;;;5.60;99.90;;;;;;4928280;29;20229;-68
2023/02/28 16:15:24;;;;;;;0.57;0.57;;;5.50;99.90;;;;;;4922475;29;20781;-68
2023/02/28 16:17:51;;;;;;;0.30;0.30;;;5.50;99.90;;;;;;4930555;29;20206;-67
2023/02/28 16:20:20;;;;;;;0.80;0.75;;;5.40;99.90;;;;;;4915399;29;20214;-68
2023/02/28 16:22:47;;;;;;;0.30;0.30;;;5.40;99.90;;;;;;4927669;29;20206;-67
2023/02/28 16:25:15;;;;;;;0.75;0.57;;;5.40;99.90;;;;;;4931856;29;20202;-67
2023/02/28 16:27:44;;;;;;;0.40;0.40;;;5.30;99.90;;;;;;4930158;29;20214;-68
2023/02/28 16:30:20;;;;;;;0.77;0.77;;;5.20;99.90;;;;;;4929883;29;20218;-67
2023/02/28 16:32:47;;;;;;;0.30;0.30;;;5.10;99.90;;;;;;4939256;29;20221;-67
2023/02/28 16:35:14;;;;;;;0.57;0.57;;;5.10;99.90;;;;;;4927401;29;20217;-67
2023/02/28 16:37:40;;;;;;;0.60;0.60;;;5.00;99.90;;;;;;4935173;29;20550;-68
2023/02/28 16:40:13;;;;;;;0.40;0.40;;;5.00;99.90;;;;;;4929694;29;20228;-68
2023/02/28 16:42:43;;;;;;;0.20;0.20;;;4.90;99.90;;;;;;4925497;29;20230;-68
2023/02/28 16:45:18;;;;;;;0.57;0.57;;;4.80;99.90;;;;;;4931210;28;20203;-68
2023/02/28 16:47:44;;;;;;;0.50;0.50;;;4.80;99.90;;;;;;4924018;29;20213;-68
2023/02/28 16:50:16;;;;;;;0.45;0.45;;;4.70;99.90;;;;;;4920902;29;20218;-68
2023/02/28 16:52:43;;;;;;;0.50;0.50;;;4.60;99.90;;;;;;4927713;29;20703;-68
2023/02/28 16:55:10;;;;;;;1.00;0.47;;;4.50;99.90;;;;;;4923476;29;20664;-67
2023/02/28 16:57:37;;;;;;;0.68;0.68;;;4.40;99.90;;;;;;4927283;29;20690;-67
2023/02/28 17:00:08;;;;;;;1.10;1.10;;;4.30;99.90;;;;;;4922460;29;20218;-67
2023/02/28 17:02:35;;;;;;;0.80;0.75;;;4.20;99.90;;;;;;4915684;29;20238;-67
2023/02/28 17:05:02;;;;;;;0.35;0.35;;;4.10;99.90;;;;;;4923535;29;20208;-67
2023/02/28 17:07:28;;;;;;;0.38;0.38;;;4.00;99.90;;;;;;4929297;29;20424;-68
2023/02/28 17:09:55;;;;;;;0.52;0.40;;;3.90;99.90;;;;;;4926848;29;20215;-68
2023/02/28 17:12:22;;;;;;;0.20;0.20;;;3.80;99.90;;;;;;4920186;29;20245;-68
2023/02/28 17:14:49;;;;;;;0.35;0.35;;;3.70;99.90;;;;;;4919727;29;20264;-68
2023/02/28 17:17:20;;;;;;;1.27;0.90;;;3.60;99.90;;;;;;4926024;29;20818;-70
2023/02/28 17:19:47;;;;;;;0.75;0.75;;;3.60;99.90;;;;;;4927981;29;20210;-69
2023/02/28 17:22:15;;;;;;;0.57;0.57;;;3.50;99.90;;;;;;4930266;29;20225;-69
2023/02/28 17:24:41;;;;;;;2.90;1.73;;;3.40;99.90;;;;;;4924445;29;20222;-68
2023/02/28 17:27:12;;;;;;;1.48;1.45;;;3.30;99.90;;;;;;4927664;29;20273;-68
2023/02/28 17:29:39;;;;;;;0.95;0.95;;;3.20;99.90;;;;;;4918939;29;20533;-68
2023/02/28 17:32:05;;;;;;;1.30;1.30;;;3.10;99.90;;;;;;4931895;29;20237;-68
2023/02/28 17:34:34;;;;;;;2.58;0.85;;;3.10;99.90;;;;;;4933215;29;20210;-68
2023/02/28 17:37:00;;;;;;;1.20;1.20;;;3.00;99.90;;;;;;4931147;29;20205;-67
2023/02/28 17:39:27;;;;;;;3.47;3.20;;;2.90;99.90;;;;;;4931418;29;20206;-68
2023/02/28 17:41:55;;;;;;;1.75;1.52;;;2.90;99.90;;;;;;4920952;29;20230;-69
2023/02/28 17:44:24;;;;;;;2.33;1.98;;;2.80;99.90;;;;;;4931398;29;20210;-69
2023/02/28 17:46:52;;;;;;;1.90;1.75;;;2.70;99.90;;;;;;4928036;29;20667;-70
2023/02/28 17:49:18;;;;;;;2.35;1.65;;;2.70;99.90;;;;;;4935028;29;20214;-70
2023/02/28 17:51:47;;;;;;;3.70;2.10;;;2.60;99.90;;;;;;4919072;29;20234;-70
2023/02/28 17:54:14;;;;;;;1.48;1.48;;;2.60;99.90;;;;;;4931808;29;20232;-70
2023/02/28 17:56:42;;;;;;;1.23;1.13;;;2.50;99.90;;;;;;4927759;29;20538;-70
2023/02/28 17:59:11;;;;;;;1.73;1.60;;;2.50;99.90;;;;;;4929590;29;20214;-70
2023/02/28 18:01:38;;;;;;;1.13;1.02;;;2.40;99.90;;;;;;4927946;29;20282;-70
2023/02/28 18:04:04;;;;;;;1.75;1.02;;;2.40;99.90;;;;;;4929185;29;20578;-70
2023/02/28 18:06:36;;;;;;;1.75;1.75;;;2.30;99.90;;;;;;4931733;29;20213;-70
2023/02/28 18:09:04;;;;;;;5.20;3.67;;;2.20;99.90;;;;;;4927020;29;20209;-70
2023/02/28 18:11:41;;;;;;;4.38;2.65;;;2.20;99.90;;;;;;4924306;29;20223;-70
2023/02/28 18:14:08;;;;;;;3.88;3.60;;;2.10;99.90;;;;;;4927831;29;20232;-69
2023/02/28 18:16:36;;;;;;;2.90;2.67;;;2.10;99.90;;;;;;4949436;29;20618;-69
2023/02/28 18:19:03;;;;;;;2.55;2.35;;;2.10;99.90;;;;;;4930981;29;20206;-69
2023/02/28 18:21:29;;;;;;;1.27;1.23;;;2.00;99.90;;;;;;4929005;29;20238;-69